Time;durP1;ratioP1;P1;durP2;ratioP2;P2;SDS_P1;SDS_P2;PMS_P1;PMS_P2;Temp;Humidity;BMP_temperature;BMP_pressure;BME280_temperature;BME280_humidity;BME280_pressure;Samples;Min_cycle;Max_cycle;Signal;HPM_P1;HPM_P2
2022/12/04 00:01:11;;;;;;;;;53.67;38.67;;;;;;;;5101545;27;46476;-61
2022/12/04 00:03:36;;;;;;;;;54.67;39.33;;;;;;;;5130488;27;45419;-61
2022/12/04 00:06:02;;;;;;;;;47.33;37.00;;;;;;;;5126945;27;45413;-61
2022/12/04 00:08:28;;;;;;;;;52.33;40.67;;;;;;;;5118067;27;45821;-62
2022/12/04 00:10:53;;;;;;;;;54.67;41.67;;;;;;;;5117606;27;46292;-61
2022/12/04 00:13:18;;;;;;;;;51.67;38.67;;;;;;;;5117793;27;45438;-61
2022/12/04 00:15:43;;;;;;;;;57.00;40.33;;;;;;;;5118128;27;45472;-61
2022/12/04 00:18:09;;;;;;;;;51.33;37.67;;;;;;;;5118406;27;45378;-61
2022/12/04 00:20:37;;;;;;;;;58.00;41.33;;;;;;;;5117370;27;46340;-61
2022/12/04 00:23:02;;;;;;;;;43.33;35.67;;;;;;;;5116785;27;45463;-61
2022/12/04 00:25:29;;;;;;;;;51.33;38.33;;;;;;;;5117753;27;45420;-61
2022/12/04 00:27:54;;;;;;;;;54.67;36.00;;;;;;;;5118229;27;45493;-61
2022/12/04 00:30:19;;;;;;;;;49.00;38.67;;;;;;;;5117646;27;45456;-61
2022/12/04 00:32:44;;;;;;;;;56.67;40.33;;;;;;;;5117796;27;45373;-62
2022/12/04 00:35:10;;;;;;;;;50.33;36.00;;;;;;;;5117962;27;45499;-61
2022/12/04 00:37:35;;;;;;;;;50.00;38.00;;;;;;;;5118034;27;45424;-61
2022/12/04 00:40:00;;;;;;;;;50.33;40.33;;;;;;;;5115341;27;46331;-61
2022/12/04 00:42:25;;;;;;;;;42.33;34.33;;;;;;;;5096449;27;45363;-60
2022/12/04 00:44:50;;;;;;;;;51.00;39.00;;;;;;;;5097060;27;45481;-60
2022/12/04 00:47:16;;;;;;;;;59.33;41.33;;;;;;;;5097325;27;45442;-60
2022/12/04 00:49:41;;;;;;;;;38.00;36.00;;;;;;;;5096765;27;46134;-60
2022/12/04 00:52:06;;;;;;;;;60.00;42.00;;;;;;;;5096954;27;45426;-60
2022/12/04 00:54:31;;;;;;;;;47.00;38.00;;;;;;;;5096584;27;45429;-61
2022/12/04 00:56:56;;;;;;;;;55.33;39.33;;;;;;;;5115936;27;45498;-60
2022/12/04 00:59:22;;;;;;;;;66.00;44.67;;;;;;;;5117455;27;45501;-60
2022/12/04 01:01:47;;;;;;;;;47.67;36.67;;;;;;;;5117345;27;45474;-60
2022/12/04 01:04:12;;;;;;;;;60.67;41.33;;;;;;;;5117387;27;45458;-60
2022/12/04 01:06:37;;;;;;;;;62.33;45.00;;;;;;;;5116008;27;45355;-61
2022/12/04 01:09:03;;;;;;;;;57.00;41.33;;;;;;;;5116160;27;46375;-60
2022/12/04 01:11:29;;;;;;;;;47.00;39.33;;;;;;;;5117013;27;45423;-61
2022/12/04 01:13:55;;;;;;;;;43.33;36.67;;;;;;;;5117064;27;45273;-61
2022/12/04 01:16:25;;;;;;;;;55.67;39.00;;;;;;;;5117469;27;45327;-61
2022/12/04 01:18:50;;;;;;;;;59.00;41.00;;;;;;;;5117115;27;45511;-61
2022/12/04 01:21:16;;;;;;;;;56.00;40.00;;;;;;;;5116843;27;45464;-61
2022/12/04 01:23:42;;;;;;;;;53.00;40.67;;;;;;;;5117521;27;45469;-61
2022/12/04 01:26:08;;;;;;;;;52.00;40.33;;;;;;;;5118459;27;45453;-61
2022/12/04 01:28:33;;;;;;;;;53.33;42.00;;;;;;;;5120497;27;46266;-61
2022/12/04 01:30:59;;;;;;;;;53.67;41.00;;;;;;;;5120623;27;45412;-60
2022/12/04 01:33:25;;;;;;;;;49.33;41.00;;;;;;;;5120759;27;45393;-61
2022/12/04 01:35:54;;;;;;;;;46.00;36.00;;;;;;;;5119983;27;45445;-60
2022/12/04 01:38:19;;;;;;;;;49.67;37.33;;;;;;;;5121155;27;45492;-61
2022/12/04 01:40:44;;;;;;;;;46.33;38.33;;;;;;;;5141358;27;45401;-60
2022/12/04 01:43:11;;;;;;;;;48.33;39.33;;;;;;;;5108460;27;45406;-60
2022/12/04 01:45:38;;;;;;;;;65.00;41.67;;;;;;;;5099884;27;45371;-60
2022/12/04 01:48:12;;;;;;;;;51.33;39.67;;;;;;;;5098982;27;46324;-60
2022/12/04 01:50:37;;;;;;;;;50.67;39.00;;;;;;;;5115629;27;45451;-60
2022/12/04 01:53:03;;;;;;;;;48.67;39.00;;;;;;;;5120456;27;45321;-61
2022/12/04 01:55:28;;;;;;;;;47.67;40.00;;;;;;;;5120702;27;45529;-60
2022/12/04 01:57:55;;;;;;;;;60.67;39.00;;;;;;;;5119980;27;46282;-61
2022/12/04 02:00:20;;;;;;;;;50.00;38.67;;;;;;;;5120152;27;45830;-61
2022/12/04 02:02:45;;;;;;;;;57.00;41.00;;;;;;;;5120213;27;45354;-61
2022/12/04 02:05:13;;;;;;;;;54.00;40.00;;;;;;;;5119422;27;45379;-61
2022/12/04 02:07:38;;;;;;;;;40.33;36.33;;;;;;;;5120222;27;45763;-60
2022/12/04 02:10:07;;;;;;;;;59.00;40.33;;;;;;;;5120010;27;45532;-60
2022/12/04 02:12:55;;;;;;;;;56.67;40.00;;;;;;;;5119986;27;45373;-60
2022/12/04 02:15:34;;;;;;;;;53.33;39.00;;;;;;;;5097354;27;45463;-60
2022/12/04 02:18:15;;;;;;;;;56.67;37.67;;;;;;;;5091452;27;46195;-60
2022/12/04 02:20:43;;;;;;;;;54.00;40.67;;;;;;;;5088915;27;45414;-60
2022/12/04 02:23:18;;;;;;;;;57.00;41.00;;;;;;;;5084573;27;45538;-60
2022/12/04 02:25:55;;;;;;;;;49.67;41.00;;;;;;;;5097059;27;45493;-60
2022/12/04 02:28:21;;;;;;;;;50.67;39.33;;;;;;;;5096036;27;45498;-60
2022/12/04 02:30:49;;;;;;;;;51.67;40.33;;;;;;;;5095889;27;45418;-60
2022/12/04 02:33:26;;;;;;;;;53.33;40.00;;;;;;;;5095857;27;45484;-60
2022/12/04 02:36:01;;;;;;;;;47.33;37.67;;;;;;;;5095844;27;45406;-60
2022/12/04 02:38:32;;;;;;;;;54.67;38.67;;;;;;;;5098330;27;46895;-60
2022/12/04 02:41:16;;;;;;;;;48.00;39.00;;;;;;;;5097507;27;45472;-60
2022/12/04 02:43:44;;;;;;;;;55.67;40.33;;;;;;;;5095483;27;45411;-60
2022/12/04 02:46:13;;;;;;;;;58.33;41.67;;;;;;;;5096045;27;45439;-60
2022/12/04 02:48:40;;;;;;;;;52.33;41.33;;;;;;;;5095653;27;45453;-60
2022/12/04 02:51:07;;;;;;;;;66.00;43.33;;;;;;;;5091340;27;45475;-60
2022/12/04 02:53:34;;;;;;;;;57.67;41.00;;;;;;;;5117738;27;45454;-60
2022/12/04 02:56:02;;;;;;;;;56.33;40.33;;;;;;;;5124260;27;45391;-60
2022/12/04 02:58:27;;;;;;;;;49.00;39.67;;;;;;;;5117872;27;45571;-60
2022/12/04 03:00:53;;;;;;;;;61.00;43.00;;;;;;;;5118310;27;45379;-60
2022/12/04 03:03:26;;;;;;;;;62.33;40.33;;;;;;;;5118308;27;45395;-60
2022/12/04 03:05:58;;;;;;;;;60.67;45.00;;;;;;;;5119740;27;45682;-60
2022/12/04 03:08:30;;;;;;;;;61.67;43.67;;;;;;;;5118107;27;45552;-60
2022/12/04 03:10:59;;;;;;;;;62.00;46.00;;;;;;;;5118453;27;45378;-61
2022/12/04 03:13:50;;;;;;;;;67.33;45.33;;;;;;;;5108076;27;45452;-60
2022/12/04 03:16:21;;;;;;;;;60.33;43.67;;;;;;;;5096034;27;45317;-60
2022/12/04 03:18:59;;;;;;;;;65.33;44.67;;;;;;;;5098707;27;46439;-61
2022/12/04 03:21:27;;;;;;;;;49.67;40.00;;;;;;;;5101432;27;45421;-61
2022/12/04 03:24:15;;;;;;;;;51.33;40.00;;;;;;;;5119473;27;45497;-60
2022/12/04 03:26:49;;;;;;;;;54.67;41.33;;;;;;;;5116108;27;45385;-60
2022/12/04 03:29:17;;;;;;;;;56.00;43.67;;;;;;;;5108622;27;47494;-61
2022/12/04 03:31:49;;;;;;;;;54.67;42.67;;;;;;;;5115286;27;45269;-60
2022/12/04 03:34:18;;;;;;;;;59.00;42.00;;;;;;;;5119559;27;45455;-61
2022/12/04 03:36:52;;;;;;;;;48.00;38.00;;;;;;;;5119407;27;45492;-61
2022/12/04 03:39:19;;;;;;;;;56.67;39.67;;;;;;;;5119116;27;46431;-61
2022/12/04 03:41:45;;;;;;;;;52.00;40.00;;;;;;;;5118944;27;45305;-61
2022/12/04 03:44:14;;;;;;;;;52.67;38.67;;;;;;;;5118145;27;45618;-61
2022/12/04 03:46:49;;;;;;;;;56.33;40.33;;;;;;;;5119216;27;45769;-60
2022/12/04 03:49:17;;;;;;;;;53.33;39.00;;;;;;;;5118252;27;45464;-60
2022/12/04 03:51:48;;;;;;;;;44.00;35.67;;;;;;;;5119031;27;45353;-60
2022/12/04 03:54:18;;;;;;;;;53.67;38.00;;;;;;;;5118833;27;45445;-60
2022/12/04 03:56:46;;;;;;;;;50.67;38.00;;;;;;;;5119243;27;45326;-60
2022/12/04 03:59:14;;;;;;;;;43.33;37.67;;;;;;;;5118350;27;46109;-60
2022/12/04 04:01:44;;;;;;;;;47.33;38.33;;;;;;;;5117494;27;45401;-60
2022/12/04 04:04:11;;;;;;;;;45.33;37.33;;;;;;;;5118959;27;45693;-60
2022/12/04 04:06:39;;;;;;;;;58.00;37.33;;;;;;;;5119041;27;45418;-60
2022/12/04 04:09:08;;;;;;;;;56.67;36.33;;;;;;;;5118735;27;46450;-60
2022/12/04 04:11:35;;;;;;;;;51.67;36.67;;;;;;;;5118428;27;45339;-61
2022/12/04 04:25:09;;;;;;;;;51.00;38.33;;;;;;;;5118528;27;45322;-61
2022/12/04 04:27:34;;;;;;;;;48.33;38.00;;;;;;;;5118650;27;45389;-61
2022/12/04 04:30:00;;;;;;;;;52.33;39.67;;;;;;;;5118092;27;46059;-60
2022/12/04 04:32:28;;;;;;;;;46.00;35.00;;;;;;;;5118571;27;45315;-61
2022/12/04 04:35:02;;;;;;;;;50.33;38.67;;;;;;;;5117544;27;45343;-61
2022/12/04 04:37:33;;;;;;;;;57.33;40.67;;;;;;;;5118031;27;46130;-61
2022/12/04 04:40:07;;;;;;;;;57.00;40.33;;;;;;;;5118188;27;46485;-61
2022/12/04 04:42:53;;;;;;;;;54.33;40.00;;;;;;;;5117979;27;45517;-61
2022/12/04 04:45:22;;;;;;;;;53.00;33.33;;;;;;;;5118142;27;45436;-61
2022/12/04 04:48:13;;;;;;;;;62.67;44.67;;;;;;;;5118305;27;45619;-61
2022/12/04 04:50:40;;;;;;;;;67.33;45.00;;;;;;;;5114423;27;45461;-61
2022/12/04 04:53:08;;;;;;;;;49.00;39.00;;;;;;;;5118267;27;45441;-61
2022/12/04 04:55:34;;;;;;;;;49.67;39.67;;;;;;;;5118131;27;45457;-61
2022/12/04 04:58:07;;;;;;;;;46.67;38.33;;;;;;;;5117991;27;45517;-61
2022/12/04 05:00:32;;;;;;;;;59.33;42.33;;;;;;;;5116509;27;46270;-61
2022/12/04 05:02:58;;;;;;;;;61.33;47.33;;;;;;;;5117985;27;45404;-61
2022/12/04 05:05:23;;;;;;;;;54.67;44.33;;;;;;;;5118013;27;45375;-60
2022/12/04 05:07:48;;;;;;;;;58.33;41.33;;;;;;;;5113560;27;45402;-61
2022/12/04 05:10:13;;;;;;;;;58.67;44.67;;;;;;;;5105566;27;45569;-61
2022/12/04 05:12:38;;;;;;;;;59.33;39.00;;;;;;;;5117773;27;45536;-60
2022/12/04 05:15:04;;;;;;;;;61.67;44.33;;;;;;;;5117833;27;45408;-60
2022/12/04 05:17:29;;;;;;;;;63.33;46.33;;;;;;;;5118196;27;45279;-60
2022/12/04 05:19:57;;;;;;;;;64.00;48.00;;;;;;;;5117765;27;45389;-61
2022/12/04 05:22:24;;;;;;;;;69.67;49.67;;;;;;;;5117904;27;45370;-61
2022/12/04 05:24:49;;;;;;;;;62.33;46.33;;;;;;;;5117707;27;45501;-61
2022/12/04 05:27:14;;;;;;;;;67.67;48.33;;;;;;;;5096841;27;45438;-61
2022/12/04 05:29:40;;;;;;;;;60.33;42.67;;;;;;;;5102425;27;46500;-60
2022/12/04 05:32:05;;;;;;;;;68.00;49.00;;;;;;;;5117418;27;45361;-61
2022/12/04 05:34:30;;;;;;;;;64.33;45.67;;;;;;;;5117748;27;45236;-61
2022/12/04 05:36:55;;;;;;;;;61.00;48.33;;;;;;;;5117758;27;45282;-61
2022/12/04 05:39:21;;;;;;;;;60.67;43.33;;;;;;;;5116983;27;46348;-61
2022/12/04 05:41:46;;;;;;;;;59.00;41.67;;;;;;;;5115191;27;45547;-61
2022/12/04 05:44:11;;;;;;;;;60.33;47.00;;;;;;;;5097470;27;45324;-61
2022/12/04 05:46:36;;;;;;;;;58.67;42.00;;;;;;;;5115097;27;45474;-61
2022/12/04 05:49:02;;;;;;;;;58.67;46.33;;;;;;;;5117472;27;46547;-61
2022/12/04 05:51:27;;;;;;;;;64.67;47.00;;;;;;;;5117118;27;45445;-61
2022/12/04 05:53:52;;;;;;;;;57.33;45.33;;;;;;;;5117512;27;45583;-61
2022/12/04 05:56:17;;;;;;;;;63.00;45.00;;;;;;;;5117624;27;45309;-61
2022/12/04 05:58:43;;;;;;;;;61.33;45.67;;;;;;;;5117262;27;45462;-61
2022/12/04 06:01:15;;;;;;;;;52.00;36.00;;;;;;;;5116008;27;45311;-61
2022/12/04 06:03:40;;;;;;;;;61.67;44.67;;;;;;;;5117160;27;45437;-61
2022/12/04 06:06:24;;;;;;;;;67.33;44.33;;;;;;;;5117409;27;45768;-61
2022/12/04 06:08:50;;;;;;;;;60.00;44.67;;;;;;;;5116920;27;46443;-61
2022/12/04 06:11:17;;;;;;;;;61.00;45.33;;;;;;;;5117943;27;45461;-61
2022/12/04 06:13:43;;;;;;;;;72.67;51.67;;;;;;;;5120448;27;45393;-61
2022/12/04 06:16:16;;;;;;;;;55.33;41.00;;;;;;;;5120457;27;45358;-61
2022/12/04 06:18:42;;;;;;;;;63.33;46.67;;;;;;;;5099731;27;47207;-61
2022/12/04 06:21:07;;;;;;;;;65.00;44.67;;;;;;;;5099348;27;45451;-61
2022/12/04 06:23:33;;;;;;;;;63.00;43.67;;;;;;;;5112742;27;45436;-61
2022/12/04 06:26:05;;;;;;;;;58.00;42.33;;;;;;;;5120850;27;45511;-61
2022/12/04 06:28:30;;;;;;;;;62.67;44.00;;;;;;;;5120209;27;45452;-61
2022/12/04 06:30:59;;;;;;;;;66.33;45.33;;;;;;;;5119808;27;45449;-61
2022/12/04 06:33:24;;;;;;;;;64.67;48.00;;;;;;;;5120393;27;45333;-61
2022/12/04 06:35:56;;;;;;;;;66.00;48.33;;;;;;;;5102070;27;45209;-61
2022/12/04 06:38:21;;;;;;;;;67.33;46.67;;;;;;;;5098204;27;46514;-61
2022/12/04 06:40:46;;;;;;;;;64.00;48.00;;;;;;;;5115646;27;45402;-61
2022/12/04 06:43:11;;;;;;;;;69.00;51.33;;;;;;;;5120441;27;45600;-61
2022/12/04 06:45:37;;;;;;;;;62.33;43.33;;;;;;;;5120209;27;45432;-62
2022/12/04 06:48:02;;;;;;;;;61.67;47.00;;;;;;;;5120212;27;45409;-61
2022/12/04 06:50:27;;;;;;;;;59.33;46.00;;;;;;;;5118787;27;45359;-61
2022/12/04 06:52:52;;;;;;;;;62.33;45.33;;;;;;;;5120166;27;45443;-61
2022/12/04 06:55:18;;;;;;;;;64.33;48.00;;;;;;;;5120281;27;45323;-61
2022/12/04 06:57:43;;;;;;;;;61.67;42.00;;;;;;;;5119729;27;46566;-61
2022/12/04 07:00:08;;;;;;;;;63.33;47.00;;;;;;;;5119878;27;45495;-61
2022/12/04 07:02:33;;;;;;;;;44.00;35.33;;;;;;;;5119756;27;45227;-61
2022/12/04 07:04:59;;;;;;;;;61.33;45.33;;;;;;;;5120008;27;45384;-62
2022/12/04 07:07:24;;;;;;;;;58.33;43.67;;;;;;;;5114809;27;46460;-62
2022/12/04 07:09:49;;;;;;;;;64.00;44.33;;;;;;;;5113295;27;45456;-62
2022/12/04 07:12:14;;;;;;;;;66.33;44.67;;;;;;;;5119785;27;45357;-62
2022/12/04 07:14:39;;;;;;;;;55.00;43.33;;;;;;;;5120100;27;45442;-62
2022/12/04 07:17:05;;;;;;;;;56.00;37.67;;;;;;;;5118929;27;46391;-62
2022/12/04 07:19:30;;;;;;;;;59.67;45.00;;;;;;;;5119487;27;45367;-62
2022/12/04 07:21:55;;;;;;;;;56.33;39.67;;;;;;;;5119284;27;45806;-62
2022/12/04 07:24:20;;;;;;;;;64.00;44.00;;;;;;;;5118074;27;45422;-62
2022/12/04 07:26:46;;;;;;;;;53.33;41.33;;;;;;;;5119376;27;46323;-61
2022/12/04 07:29:11;;;;;;;;;60.00;41.33;;;;;;;;5119166;27;45179;-62
2022/12/04 07:31:37;;;;;;;;;66.33;46.33;;;;;;;;5119403;27;45394;-62
2022/12/04 07:34:02;;;;;;;;;64.67;44.00;;;;;;;;5119331;27;45254;-61
2022/12/04 07:36:27;;;;;;;;;63.33;46.00;;;;;;;;5119405;27;45590;-61
2022/12/04 07:38:53;;;;;;;;;61.00;45.67;;;;;;;;5119154;27;45498;-61
2022/12/04 07:41:19;;;;;;;;;60.67;44.00;;;;;;;;5115180;27;45631;-61
2022/12/04 07:43:44;;;;;;;;;59.67;45.00;;;;;;;;5098850;27;45334;-61
2022/12/04 07:46:11;;;;;;;;;55.33;43.67;;;;;;;;5098410;27;46218;-61
2022/12/04 07:48:36;;;;;;;;;63.33;47.67;;;;;;;;5101001;27;45376;-61
2022/12/04 07:51:06;;;;;;;;;60.00;45.00;;;;;;;;5119130;27;45236;-61
2022/12/04 07:53:32;;;;;;;;;66.67;47.33;;;;;;;;5119305;27;45444;-61
2022/12/04 07:55:57;;;;;;;;;59.67;43.33;;;;;;;;5118657;27;46318;-62
2022/12/04 07:58:23;;;;;;;;;59.67;46.00;;;;;;;;5118771;27;45291;-61
2022/12/04 08:00:48;;;;;;;;;63.67;49.67;;;;;;;;5118273;27;45320;-61
2022/12/04 08:03:13;;;;;;;;;63.67;44.67;;;;;;;;5118589;27;45600;-61
2022/12/04 08:05:38;;;;;;;;;61.33;43.67;;;;;;;;5118781;27;46146;-61
2022/12/04 08:08:03;;;;;;;;;66.67;45.33;;;;;;;;5118789;27;45471;-61
2022/12/04 08:10:29;;;;;;;;;60.33;45.00;;;;;;;;5117191;27;45291;-61
2022/12/04 08:12:54;;;;;;;;;61.33;44.00;;;;;;;;5118835;27;45410;-61
2022/12/04 08:15:19;;;;;;;;;56.67;42.00;;;;;;;;5118655;27;46103;-61
2022/12/04 08:17:44;;;;;;;;;66.00;41.00;;;;;;;;5118331;27;45391;-61
2022/12/04 08:20:10;;;;;;;;;56.00;38.67;;;;;;;;5118711;27;46358;-61
2022/12/04 08:22:35;;;;;;;;;62.33;41.33;;;;;;;;5118718;27;45441;-61
2022/12/04 08:25:00;;;;;;;;;61.67;41.67;;;;;;;;5118174;27;46782;-61
2022/12/04 08:27:25;;;;;;;;;67.00;47.67;;;;;;;;5107024;27;45407;-61
2022/12/04 08:29:50;;;;;;;;;60.00;45.33;;;;;;;;5117088;27;45490;-61
2022/12/04 08:32:16;;;;;;;;;62.00;48.00;;;;;;;;5118495;27;45480;-61
2022/12/04 08:34:41;;;;;;;;;64.67;47.33;;;;;;;;5116192;27;46577;-60
2022/12/04 08:37:06;;;;;;;;;57.33;44.33;;;;;;;;5118335;27;45250;-60
2022/12/04 08:39:31;;;;;;;;;64.33;46.67;;;;;;;;5118487;27;45411;-60
2022/12/04 08:41:56;;;;;;;;;64.67;47.00;;;;;;;;5118466;27;45299;-58
2022/12/04 08:44:22;;;;;;;;;61.00;46.00;;;;;;;;5118076;27;45450;-60
2022/12/04 08:46:47;;;;;;;;;56.00;44.00;;;;;;;;5114979;27;45296;-60
2022/12/04 08:49:12;;;;;;;;;70.00;49.67;;;;;;;;5110940;27;45421;-60
2022/12/04 08:51:38;;;;;;;;;65.67;43.00;;;;;;;;5105820;27;45488;-59
2022/12/04 08:54:05;;;;;;;;;69.00;47.00;;;;;;;;5117308;27;45392;-60
2022/12/04 08:56:31;;;;;;;;;64.00;46.33;;;;;;;;5117981;27;45158;-60
2022/12/04 08:58:56;;;;;;;;;69.67;46.00;;;;;;;;5117925;27;45251;-61
2022/12/04 09:01:22;;;;;;;;;59.67;45.00;;;;;;;;5108880;27;46280;-60
2022/12/04 09:03:47;;;;;;;;;65.67;44.67;;;;;;;;5097174;27;46082;-60
2022/12/04 09:06:13;;;;;;;;;56.33;45.67;;;;;;;;5110259;27;45471;-60
2022/12/04 09:08:39;;;;;;;;;62.33;49.33;;;;;;;;5118060;27;45447;-60
2022/12/04 09:11:07;;;;;;;;;57.00;42.00;;;;;;;;5117799;27;45394;-62
2022/12/04 09:13:33;;;;;;;;;59.00;43.00;;;;;;;;5117709;27;46521;-59
2022/12/04 09:15:58;;;;;;;;;61.33;45.67;;;;;;;;5117028;27;45404;-61
2022/12/04 09:18:23;;;;;;;;;58.00;42.00;;;;;;;;5117076;27;45621;-60
2022/12/04 09:20:58;;;;;;;;;62.33;44.33;;;;;;;;5117722;27;45484;-61
2022/12/04 09:23:24;;;;;;;;;62.33;46.00;;;;;;;;5117467;27;45408;-61
2022/12/04 09:25:49;;;;;;;;;66.00;47.67;;;;;;;;5117644;27;45253;-61
2022/12/04 09:28:15;;;;;;;;;59.67;44.00;;;;;;;;5117527;27;45472;-61
2022/12/04 09:30:40;;;;;;;;;64.33;44.33;;;;;;;;5117883;27;45355;-62
2022/12/04 09:33:05;;;;;;;;;66.67;45.67;;;;;;;;5117596;27;45580;-61
2022/12/04 09:35:30;;;;;;;;;63.33;48.67;;;;;;;;5114619;27;45523;-61
2022/12/04 09:37:56;;;;;;;;;59.00;45.00;;;;;;;;5117628;27;45354;-61
2022/12/04 09:40:29;;;;;;;;;58.67;43.67;;;;;;;;5117777;27;45622;-60
2022/12/04 09:43:04;;;;;;;;;58.00;43.67;;;;;;;;5116504;27;46536;-60
2022/12/04 09:45:36;;;;;;;;;58.67;45.00;;;;;;;;5116855;27;45468;-62
2022/12/04 09:48:01;;;;;;;;;61.67;46.67;;;;;;;;5120520;27;45417;-60
2022/12/04 09:50:43;;;;;;;;;55.67;42.67;;;;;;;;5118992;27;45630;-60
2022/12/04 09:53:20;;;;;;;;;59.67;43.67;;;;;;;;5120376;27;46591;-62
2022/12/04 09:55:59;;;;;;;;;56.00;41.67;;;;;;;;5120177;27;45324;-61
2022/12/04 09:58:34;;;;;;;;;53.67;41.33;;;;;;;;5121057;27;45615;-61
2022/12/04 10:00:59;;;;;;;;;53.67;43.33;;;;;;;;5121053;27;45380;-61
2022/12/04 10:03:26;;;;;;;;;60.67;46.00;;;;;;;;5120476;27;46465;-62
2022/12/04 10:05:57;;;;;;;;;71.00;44.00;;;;;;;;5120297;27;45225;-61
2022/12/04 10:08:27;;;;;;;;;51.00;40.67;;;;;;;;5119429;27;45350;-60
2022/12/04 10:10:52;;;;;;;;;55.33;42.33;;;;;;;;5120414;27;45433;-60
2022/12/04 10:13:20;;;;;;;;;59.00;42.00;;;;;;;;5120742;27;45539;-60
2022/12/04 10:15:52;;;;;;;;;56.33;43.00;;;;;;;;5120565;27;45427;-61
2022/12/04 10:18:46;;;;;;;;;58.00;44.00;;;;;;;;5120414;27;45427;-60
2022/12/04 10:21:21;;;;;;;;;54.00;41.00;;;;;;;;5036724;28;45421;-59
2022/12/04 10:23:46;;;;;;;;;46.67;39.67;;;;;;;;5035727;28;46288;-60
2022/12/04 10:26:16;;;;;;;;;57.67;41.67;;;;;;;;5036236;28;45615;-60
2022/12/04 10:28:47;;;;;;;;;60.33;42.67;;;;;;;;5035637;28;45546;-60
2022/12/04 10:31:14;;;;;;;;;53.33;41.00;;;;;;;;5035529;28;45377;-60
2022/12/04 10:33:52;;;;;;;;;58.33;40.67;;;;;;;;5036565;28;46422;-60
2022/12/04 10:36:19;;;;;;;;;57.00;42.00;;;;;;;;5036090;28;45521;-60
2022/12/04 10:39:04;;;;;;;;;64.33;48.00;;;;;;;;5036739;28;45311;-59
2022/12/04 10:41:50;;;;;;;;;57.33;46.33;;;;;;;;5035605;28;45381;-59
2022/12/04 10:44:16;;;;;;;;;56.33;42.33;;;;;;;;5036311;28;45684;-59
2022/12/04 10:46:42;;;;;;;;;63.00;39.67;;;;;;;;5036319;28;45796;-60
2022/12/04 10:49:16;;;;;;;;;67.67;42.00;;;;;;;;5036503;28;45537;-60
2022/12/04 10:51:42;;;;;;;;;63.33;42.33;;;;;;;;5036143;28;45544;-59
2022/12/04 10:54:14;;;;;;;;;65.00;42.67;;;;;;;;5035859;28;47007;-60
2022/12/04 10:56:48;;;;;;;;;58.67;42.67;;;;;;;;5042114;27;45344;-61
2022/12/04 10:59:14;;;;;;;;;57.33;40.67;;;;;;;;5112311;27;45376;-59
2022/12/04 11:01:40;;;;;;;;;60.00;40.33;;;;;;;;5118615;27;45629;-59
2022/12/04 11:04:07;;;;;;;;;60.00;41.00;;;;;;;;5118868;27;45695;-59
2022/12/04 11:06:32;;;;;;;;;51.33;39.67;;;;;;;;5117996;27;45411;-60
2022/12/04 11:08:59;;;;;;;;;47.67;41.33;;;;;;;;5118210;27;45533;-59
2022/12/04 11:11:32;;;;;;;;;53.33;40.33;;;;;;;;5118410;27;45500;-60
2022/12/04 11:14:05;;;;;;;;;56.33;37.67;;;;;;;;5120730;27;46509;-60
2022/12/04 11:16:35;;;;;;;;;55.00;43.67;;;;;;;;5115327;27;45411;-60
2022/12/04 11:19:00;;;;;;;;;64.33;44.33;;;;;;;;5118546;27;45560;-60
2022/12/04 11:21:29;;;;;;;;;62.00;45.00;;;;;;;;5118468;27;45411;-60
2022/12/04 11:23:55;;;;;;;;;52.33;42.00;;;;;;;;5119937;27;45467;-60
2022/12/04 11:26:29;;;;;;;;;55.00;41.00;;;;;;;;5109324;27;46763;-60
2022/12/04 11:28:57;;;;;;;;;56.67;41.33;;;;;;;;5131764;27;45368;-61
2022/12/04 11:31:23;;;;;;;;;49.00;38.67;;;;;;;;5119344;27;45514;-60
2022/12/04 11:33:51;;;;;;;;;68.00;46.33;;;;;;;;5108883;27;46729;-60
2022/12/04 11:36:36;;;;;;;;;68.67;45.00;;;;;;;;5098302;27;45496;-62
2022/12/04 11:39:21;;;;;;;;;64.00;44.00;;;;;;;;5118318;27;45660;-62
2022/12/04 11:41:57;;;;;;;;;58.00;47.67;;;;;;;;5104187;27;45463;-60
2022/12/04 11:44:26;;;;;;;;;59.33;41.67;;;;;;;;5118641;27;45462;-60
2022/12/04 11:46:53;;;;;;;;;62.00;47.00;;;;;;;;5118867;27;45452;-62
2022/12/04 11:49:20;;;;;;;;;61.67;46.33;;;;;;;;5115853;27;45302;-60
2022/12/04 11:52:00;;;;;;;;;60.67;46.33;;;;;;;;5117554;27;45373;-60
2022/12/04 11:54:42;;;;;;;;;62.67;48.33;;;;;;;;5139165;27;46100;-61
2022/12/04 11:57:23;;;;;;;;;54.67;42.33;;;;;;;;5106283;27;45421;-61
2022/12/04 11:59:48;;;;;;;;;61.00;44.00;;;;;;;;5103443;27;45494;-61
2022/12/04 12:02:28;;;;;;;;;61.33;45.33;;;;;;;;5122508;27;45712;-61
2022/12/04 12:05:02;;;;;;;;;59.67;45.00;;;;;;;;5135552;27;46667;-61
2022/12/04 12:07:41;;;;;;;;;63.00;44.67;;;;;;;;5114630;27;45555;-62
2022/12/04 12:10:13;;;;;;;;;58.00;43.00;;;;;;;;5110491;27;45504;-62
2022/12/04 12:12:56;;;;;;;;;58.67;44.33;;;;;;;;5105282;27;45607;-62
2022/12/04 12:15:31;;;;;;;;;51.67;37.00;;;;;;;;5136776;27;46250;-62
2022/12/04 12:17:59;;;;;;;;;55.00;44.00;;;;;;;;5138547;27;45408;-62
2022/12/04 12:20:47;;;;;;;;;60.00;44.00;;;;;;;;5130094;27;45483;-62
2022/12/04 12:23:15;;;;;;;;;63.33;46.00;;;;;;;;5033733;28;45429;-60
2022/12/04 12:25:48;;;;;;;;;55.33;42.67;;;;;;;;5033363;28;45580;-62
2022/12/04 12:28:24;;;;;;;;;54.00;42.00;;;;;;;;5032988;28;45490;-62
2022/12/04 12:30:49;;;;;;;;;58.33;44.33;;;;;;;;5032046;28;45787;-62
2022/12/04 12:33:19;;;;;;;;;60.33;46.00;;;;;;;;5033190;28;45453;-62
2022/12/04 12:36:04;;;;;;;;;60.00;44.00;;;;;;;;5034045;28;46570;-62
2022/12/04 12:38:32;;;;;;;;;59.33;41.00;;;;;;;;5033832;28;45425;-62
2022/12/04 12:41:00;;;;;;;;;66.33;47.00;;;;;;;;5034011;28;45452;-62
2022/12/04 12:43:36;;;;;;;;;69.67;51.33;;;;;;;;5034048;28;45383;-62
2022/12/04 12:46:16;;;;;;;;;66.00;53.00;;;;;;;;5033148;28;46882;-62
2022/12/04 12:49:00;;;;;;;;;65.00;44.33;;;;;;;;5033010;28;45350;-62
2022/12/04 12:51:34;;;;;;;;;66.67;49.00;;;;;;;;5024478;28;45449;-62
2022/12/04 12:54:18;;;;;;;;;61.67;49.00;;;;;;;;5034149;28;45585;-62
2022/12/04 12:56:48;;;;;;;;;65.00;51.33;;;;;;;;5013857;28;46697;-62
2022/12/04 12:59:16;;;;;;;;;71.00;45.33;;;;;;;;5019675;27;45425;-62
2022/12/04 13:02:08;;;;;;;;;59.33;48.33;;;;;;;;5096547;27;45448;-62
2022/12/04 13:04:39;;;;;;;;;65.00;47.00;;;;;;;;5089901;27;45270;-62
2022/12/04 13:07:16;;;;;;;;;70.00;52.33;;;;;;;;5098890;27;45582;-62
2022/12/04 13:09:45;;;;;;;;;55.33;43.33;;;;;;;;5115040;27;45479;-62
2022/12/04 13:12:13;;;;;;;;;59.00;43.67;;;;;;;;5111586;27;45542;-62
2022/12/04 13:14:38;;;;;;;;;57.33;42.00;;;;;;;;5094690;27;45419;-62
2022/12/04 13:17:11;;;;;;;;;62.00;43.33;;;;;;;;5093781;27;45519;-62
2022/12/04 13:19:42;;;;;;;;;61.67;45.00;;;;;;;;5094105;27;45436;-62
2022/12/04 13:22:07;;;;;;;;;61.67;45.33;;;;;;;;5095281;27;47834;-62
2022/12/04 13:24:32;;;;;;;;;62.67;45.00;;;;;;;;5098143;27;45554;-62
2022/12/04 13:27:04;;;;;;;;;62.33;47.00;;;;;;;;5097994;27;47366;-62
2022/12/04 13:29:35;;;;;;;;;60.33;44.00;;;;;;;;5098777;27;45371;-62
2022/12/04 13:32:03;;;;;;;;;58.00;41.67;;;;;;;;5097567;27;45451;-62
2022/12/04 13:34:28;;;;;;;;;62.33;46.00;;;;;;;;5098411;27;45445;-62
2022/12/04 13:37:04;;;;;;;;;59.33;44.33;;;;;;;;5098560;27;46446;-62
2022/12/04 13:39:48;;;;;;;;;58.00;41.67;;;;;;;;5086863;27;45554;-62
2022/12/04 13:42:24;;;;;;;;;54.67;41.67;;;;;;;;5099938;27;45355;-62
2022/12/04 13:44:57;;;;;;;;;62.00;45.00;;;;;;;;5099836;27;46018;-62
2022/12/04 13:47:32;;;;;;;;;61.33;44.33;;;;;;;;5118644;27;46272;-62
2022/12/04 13:50:16;;;;;;;;;62.33;41.33;;;;;;;;5121008;27;45348;-61
2022/12/04 13:52:42;;;;;;;;;54.33;45.67;;;;;;;;5109716;27;45382;-61
2022/12/04 13:55:22;;;;;;;;;55.67;39.33;;;;;;;;5118193;27;45430;-61
2022/12/04 13:57:54;;;;;;;;;51.67;43.33;;;;;;;;5114490;27;46467;-62
2022/12/04 14:00:30;;;;;;;;;63.67;48.00;;;;;;;;5120369;27;45926;-61
2022/12/04 14:03:00;;;;;;;;;62.67;47.67;;;;;;;;5117066;27;45542;-62
2022/12/04 14:05:26;;;;;;;;;50.00;38.33;;;;;;;;5099804;27;45763;-62
2022/12/04 14:08:00;;;;;;;;;54.67;45.33;;;;;;;;5105937;27;45987;-62
2022/12/04 14:10:32;;;;;;;;;64.00;49.67;;;;;;;;5118026;27;45447;-62
2022/12/04 14:12:57;;;;;;;;;61.33;48.00;;;;;;;;5120199;27;45468;-62
2022/12/04 14:15:24;;;;;;;;;59.00;46.00;;;;;;;;5120433;27;45359;-61
2022/12/04 14:18:00;;;;;;;;;68.33;45.33;;;;;;;;5115152;27;45538;-63
2022/12/04 14:20:29;;;;;;;;;57.33;44.67;;;;;;;;5115113;27;45893;-63
2022/12/04 14:23:05;;;;;;;;;55.33;43.00;;;;;;;;5120024;27;45440;-63
2022/12/04 14:25:39;;;;;;;;;53.00;41.33;;;;;;;;5120676;27;45403;-63
2022/12/04 14:28:12;;;;;;;;;58.67;44.00;;;;;;;;5120134;27;45615;-63
2022/12/04 14:30:38;;;;;;;;;55.67;43.67;;;;;;;;5120265;27;45466;-63
2022/12/04 14:33:23;;;;;;;;;61.67;45.67;;;;;;;;5120241;27;45416;-63
2022/12/04 14:35:56;;;;;;;;;61.33;44.67;;;;;;;;5114588;27;45691;-63
2022/12/04 14:38:22;;;;;;;;;58.33;41.67;;;;;;;;5099045;27;45502;-63